Perryville, Louisiana
Current Conditions -  °F | °C
As of 3:55 AM on Friday 19 Dec 2014 (Local Time) from KBQP Reporting Station
Broken Clouds Broken Clouds  
Wind Chill: 46°   Ceiling: 4400
Heat Index: 46°   Visibility: 10mi
Dew Point: 44°   Wind: 3mph
Humidity: 93%   Direction: 50°NE
Pressure: 30.15"   Gusts: NA
Location:  32.8721°N, 91.912°W
Report Text: KBQP 190955Z AUTO 05003KT 10SM SCT030 BKN044 08/07 A3015 RMK AO2 T00760065
Loading
Personal Weather Stations






























Interactive Weather Map New forecast layout! Learn more

10-Day Weather Forecast

Advertisements
Track Severe Weather on mobile